createdAt,value
2022-10-25T00:00:09.419Z,0
2022-10-25T00:05:09.410Z,0
2022-10-25T00:10:09.508Z,0
2022-10-25T00:15:09.583Z,0
2022-10-25T00:20:09.646Z,0
2022-10-25T00:25:09.443Z,0
2022-10-25T00:30:09.486Z,0
2022-10-25T00:35:09.441Z,0
2022-10-25T00:40:09.515Z,0
2022-10-25T00:45:09.485Z,0
2022-10-25T00:50:09.583Z,0
2022-10-25T00:55:09.761Z,0
2022-10-25T01:00:09.612Z,0
2022-10-25T01:05:09.610Z,0
2022-10-25T01:10:09.439Z,0
2022-10-25T01:15:09.546Z,0
2022-10-25T01:20:09.501Z,0
2022-10-25T01:25:09.494Z,0
2022-10-25T01:30:09.498Z,0
2022-10-25T01:35:09.525Z,0
2022-10-25T01:40:09.706Z,0
2022-10-25T01:45:09.659Z,0
2022-10-25T01:50:09.482Z,0
2022-10-25T01:55:09.523Z,0
2022-10-25T02:00:09.496Z,0
2022-10-25T02:05:09.567Z,0
2022-10-25T02:10:09.539Z,0
2022-10-25T02:15:09.568Z,0
2022-10-25T02:20:09.594Z,0
2022-10-25T02:25:09.613Z,0
2022-10-25T02:30:09.660Z,0
2022-10-25T02:35:09.580Z,0
2022-10-25T02:40:09.566Z,0
2022-10-25T02:45:09.541Z,0
2022-10-25T02:50:09.564Z,0
2022-10-25T02:55:09.632Z,0
2022-10-25T03:00:09.617Z,0
2022-10-25T03:05:09.565Z,0
2022-10-25T03:10:09.753Z,0
2022-10-25T03:15:09.743Z,0
2022-10-25T03:20:09.557Z,0
2022-10-25T03:30:09.673Z,0
2022-10-25T03:35:09.581Z,0
2022-10-25T03:40:09.718Z,0
2022-10-25T03:45:09.560Z,0
2022-10-25T03:50:09.639Z,0
2022-10-25T03:55:09.605Z,0
2022-10-25T04:00:09.771Z,0
2022-10-25T04:05:09.732Z,0
2022-10-25T04:10:09.578Z,0
2022-10-25T04:15:09.585Z,0
2022-10-25T04:20:09.806Z,0
2022-10-25T04:25:09.658Z,0
2022-10-25T04:30:09.820Z,0
2022-10-25T04:35:09.624Z,0
2022-10-25T04:40:09.801Z,0
2022-10-25T04:45:09.716Z,0
2022-10-25T04:50:09.914Z,0
2022-10-25T04:55:09.867Z,0
2022-10-25T05:00:09.857Z,0
2022-10-25T05:05:09.785Z,0
2022-10-25T05:10:09.716Z,0
2022-10-25T05:15:09.673Z,0
2022-10-25T05:20:09.673Z,0
2022-10-25T05:25:09.795Z,0
2022-10-25T05:30:09.670Z,0
2022-10-25T05:35:09.745Z,0
2022-10-25T05:40:09.822Z,0
2022-10-25T05:45:09.929Z,0
2022-10-25T05:50:09.696Z,0
2022-10-25T05:55:09.719Z,0
2022-10-25T06:00:09.735Z,0
2022-10-25T06:05:09.726Z,0
2022-10-25T06:10:10.825Z,0
2022-10-25T06:15:09.838Z,0.314984126984127
2022-10-25T06:20:09.749Z,0.21589417989417992
2022-10-25T06:25:09.936Z,0.3641164021164021
2022-10-25T06:30:09.855Z,0.27774603174603174
2022-10-25T06:35:09.932Z,0
2022-10-25T06:40:09.784Z,0.13627513227513227
2022-10-25T06:45:09.802Z,0.6782433862433863
2022-10-25T06:50:09.787Z,1.4330264550264549
2022-10-25T06:55:09.971Z,1.3394603174603175
2022-10-25T07:00:09.879Z,0.7480740740740741
2022-10-25T07:05:09.738Z,0.4954920634920635
2022-10-25T07:10:09.822Z,0.5169417989417989
2022-10-25T07:15:09.875Z,0.4738624338624339
2022-10-25T07:20:01.035Z,0.4022328042328043
2022-10-25T07:25:01.149Z,0.41964021164021165
2022-10-25T07:30:01.237Z,0.3472169312169312
2022-10-25T07:35:01.219Z,2.401936507936508
2022-10-25T07:40:01.158Z,4.721883597883598
2022-10-25T07:45:01.121Z,4.409830687830688
2022-10-25T07:50:01.891Z,4.2484338624338625
2022-10-25T07:55:01.030Z,3.8186455026455026
2022-10-25T08:00:01.022Z,5.755132275132276
2022-10-25T08:05:01.020Z,7.1830687830687845
2022-10-25T08:10:01.121Z,8.539375661375662
2022-10-25T08:15:01.218Z,10.77247619047619
2022-10-25T08:20:01.258Z,11.085492063492062
2022-10-25T08:25:01.055Z,14.89967195767196
2022-10-25T08:30:01.152Z,13.074063492063493
2022-10-25T08:35:01.071Z,15.015089947089946
2022-10-25T08:40:01.115Z,11.777555555555557
2022-10-25T08:45:01.072Z,15.286190476190479
2022-10-25T08:50:01.098Z,31.981280423280428
2022-10-25T08:55:03.138Z,25.87415873015873
2022-10-25T09:00:01.178Z,14.580380952380953
2022-10-25T09:05:01.222Z,11.154507936507937
2022-10-25T09:10:01.311Z,9.515544973544975
2022-10-25T09:15:01.258Z,6.636973544973544
2022-10-25T09:20:01.264Z,8.5954708994709
2022-10-25T09:25:01.267Z,9.342179894179894
2022-10-25T09:30:02.595Z,14.551502645502644
2022-10-25T09:35:01.167Z,15.227544973544974
2022-10-25T09:40:01.147Z,13.871386243386244
2022-10-25T09:45:01.125Z,18.853100529100526
2022-10-25T09:50:01.370Z,10.791121693121692
2022-10-25T09:55:01.368Z,9.627883597883597
2022-10-25T10:00:01.674Z,10.960645502645502
2022-10-25T10:05:01.348Z,8.334349206349206
2022-10-25T10:10:01.165Z,7.850275132275132
2022-10-25T10:15:01.188Z,6.584783068783069
2022-10-25T10:20:01.168Z,8.824645502645502
2022-10-25T10:25:01.179Z,19.205809523809524
2022-10-25T10:30:01.201Z,14.600624338624337
2022-10-25T10:35:01.222Z,11.271915343915342
2022-10-25T10:40:01.266Z,9.83332275132275
2022-10-25T10:45:01.374Z,7.30915343915344
2022-10-25T10:50:01.535Z,8.270613756613757
2022-10-25T10:55:01.207Z,7.269883597883597
2022-10-25T11:00:01.298Z,8.493502645502646
2022-10-25T11:05:01.236Z,10.291492063492063
2022-10-25T11:10:01.248Z,8.792804232804235
2022-10-25T11:15:01.228Z,12.653015873015875
2022-10-25T11:20:01.224Z,16.953089947089946
2022-10-25T11:25:01.274Z,30.44382010582011
2022-10-25T11:30:01.334Z,22.710772486772488
2022-10-25T11:35:01.395Z,15.514359788359789
2022-10-25T11:40:01.239Z,10.230814814814815
2022-10-25T11:45:01.278Z,13.695714285714287
2022-10-25T11:50:01.305Z,19.184814814814814
2022-10-25T11:55:01.240Z,49.71522751322751
2022-10-25T12:00:01.244Z,37.59778835978836
2022-10-25T12:05:01.266Z,26.162666666666667
2022-10-25T12:15:01.446Z,30.399947089947087
2022-10-25T12:20:01.441Z,23.064518518518522
2022-10-25T12:25:01.480Z,26.373809523809527
2022-10-25T12:30:01.334Z,11.761068783068783
2022-10-25T12:35:01.324Z,10.870074074074074
2022-10-25T12:40:01.319Z,14.993481481481483
2022-10-25T12:45:01.420Z,12.613693121693121
2022-10-25T12:50:01.292Z,11.327132275132275
2022-10-25T12:55:01.342Z,12.68468783068783
2022-10-25T13:00:01.445Z,36.67978835978836
2022-10-25T13:05:01.522Z,31.92573544973545
2022-10-25T13:10:01.331Z,15.306349206349207
2022-10-25T13:15:01.305Z,8.505830687830688
2022-10-25T13:20:01.356Z,6.54005291005291
2022-10-25T13:25:01.353Z,5.684042328042328
2022-10-25T13:30:01.401Z,4.687619047619048
2022-10-25T13:35:01.367Z,3.836613756613757
2022-10-25T13:40:01.460Z,4.397904761904762
2022-10-25T13:45:01.908Z,5.0286137566137565
2022-10-25T13:50:01.386Z,7.594751322751324
2022-10-25T13:55:01.417Z,19.564455026455025
2022-10-25T14:00:01.439Z,18.182232804232804
2022-10-25T14:05:01.379Z,12.48884656084656
2022-10-25T14:10:01.361Z,7.325989417989419
2022-10-25T14:15:01.397Z,4.545058201058201
2022-10-25T14:20:01.597Z,3.8704126984126987
2022-10-25T14:25:01.548Z,3.4844338624338627
2022-10-25T14:30:01.400Z,3.452962962962963
2022-10-25T14:35:01.378Z,3.4861587301587305
2022-10-25T14:40:01.643Z,4.6851322751322755
2022-10-25T14:45:01.455Z,5.151037037037037
2022-10-25T14:50:01.535Z,4.978391534391535
2022-10-25T14:55:01.566Z,3.6739259259259263
2022-10-25T15:00:01.697Z,2.6144126984126985
2022-10-25T15:05:01.437Z,1.403005291005291
2022-10-25T15:10:01.548Z,0.6376507936507937
2022-10-25T15:15:01.417Z,0.3440317460317461
2022-10-25T15:20:01.446Z,0.29400000000000004
2022-10-25T15:25:01.451Z,0.26614814814814813
2022-10-25T15:30:01.534Z,0.05313227513227513
2022-10-25T15:35:01.617Z,0
2022-10-25T15:40:01.456Z,0
2022-10-25T15:45:01.474Z,0
2022-10-25T15:50:01.517Z,0
2022-10-25T15:55:01.429Z,0
2022-10-25T16:00:01.463Z,0
2022-10-25T16:05:01.510Z,0
2022-10-25T16:10:01.590Z,0
2022-10-25T16:15:01.610Z,0
2022-10-25T16:20:01.502Z,0
2022-10-25T16:25:01.508Z,0
2022-10-25T16:30:01.542Z,0
2022-10-25T16:35:01.482Z,0
2022-10-25T16:40:01.493Z,0
2022-10-25T16:45:01.569Z,0
2022-10-25T16:50:01.668Z,0
2022-10-25T16:55:01.670Z,0
2022-10-25T17:00:01.458Z,0
2022-10-25T17:05:01.504Z,0
2022-10-25T17:10:01.526Z,0
2022-10-25T17:15:01.594Z,0
2022-10-25T17:20:01.507Z,0
2022-10-25T17:25:01.578Z,0
2022-10-25T17:30:01.727Z,0
2022-10-25T17:35:01.698Z,0
2022-10-25T17:40:01.526Z,0
2022-10-25T17:45:01.579Z,0
2022-10-25T17:50:01.572Z,0
2022-10-25T17:55:01.570Z,0
2022-10-25T18:00:01.582Z,0
2022-10-25T18:05:19.266Z,0
2022-10-25T18:10:01.735Z,0
2022-10-25T18:15:01.611Z,0
2022-10-25T18:20:01.669Z,0
2022-10-25T18:25:01.602Z,0
2022-10-25T18:30:01.664Z,0
2022-10-25T18:35:01.672Z,0
2022-10-25T18:40:01.652Z,0
2022-10-25T18:45:01.787Z,0
2022-10-25T18:50:01.620Z,0
2022-10-25T18:55:01.698Z,0
2022-10-25T19:00:01.605Z,0
2022-10-25T19:05:01.654Z,0
2022-10-25T19:10:01.810Z,0
2022-10-25T19:15:01.688Z,0
2022-10-25T19:20:01.782Z,0
2022-10-25T19:25:01.902Z,0
2022-10-25T19:30:01.837Z,0
2022-10-25T19:35:01.658Z,0
2022-10-25T19:40:01.674Z,0
2022-10-25T19:45:01.692Z,0
2022-10-25T19:50:01.659Z,0
2022-10-25T20:00:01.928Z,0
2022-10-25T20:05:01.720Z,0
2022-10-25T20:10:01.768Z,0
2022-10-25T20:15:01.761Z,0
2022-10-25T20:20:01.717Z,0
2022-10-25T20:25:02.105Z,0
2022-10-25T20:30:01.760Z,0
2022-10-25T20:35:01.810Z,0
2022-10-25T20:40:02.410Z,0
2022-10-25T20:45:04.671Z,0
2022-10-25T20:50:01.766Z,0
2022-10-25T20:55:01.793Z,0
2022-10-25T21:00:01.784Z,0
2022-10-25T21:05:01.765Z,0
2022-10-25T21:10:01.736Z,0
2022-10-25T21:15:01.910Z,0
2022-10-25T21:20:01.895Z,0
2022-10-25T21:25:01.742Z,0
2022-10-25T21:30:01.789Z,0
2022-10-25T21:35:01.799Z,0
2022-10-25T21:40:01.756Z,0
2022-10-25T21:45:01.767Z,0
2022-10-25T21:50:01.846Z,0
2022-10-25T21:55:01.893Z,0
2022-10-25T22:00:02.100Z,0
2022-10-25T22:05:01.789Z,0
2022-10-25T22:10:01.857Z,0
2022-10-25T22:15:01.830Z,0
2022-10-25T22:20:01.785Z,0
2022-10-25T22:25:01.857Z,0
2022-10-25T22:30:01.886Z,0
2022-10-25T22:35:01.954Z,0
2022-10-25T22:40:01.804Z,0
2022-10-25T22:45:01.854Z,0
2022-10-25T22:50:01.870Z,0
2022-10-25T22:55:01.933Z,0
2022-10-25T23:00:01.818Z,0
2022-10-25T23:05:01.809Z,0
2022-10-25T23:10:02.001Z,0
2022-10-25T23:15:02.077Z,0
2022-10-25T23:20:01.847Z,0
2022-10-25T23:25:01.845Z,0
2022-10-25T23:30:01.861Z,0
2022-10-25T23:35:01.913Z,0
2022-10-25T23:40:01.884Z,0
2022-10-25T23:45:01.961Z,0
2022-10-25T23:50:02.134Z,0
2022-10-25T23:55:02.080Z,0
